createdAt,value
2023-02-06T00:00:06.803Z,100372.41
2023-02-06T00:02:11.644Z,100370.72
2023-02-06T00:04:17.323Z,100375.78
2023-02-06T00:06:22.266Z,100396.34
2023-02-06T00:08:27.147Z,100389.53
2023-02-06T00:10:32.019Z,100386.13
2023-02-06T00:12:37.745Z,100393.53
2023-02-06T00:14:45.233Z,100391.81
2023-02-06T00:16:50.043Z,100391.63
2023-02-06T00:18:56.126Z,100393.44
2023-02-06T00:21:01.081Z,100395.22
2023-02-06T00:23:06.012Z,100390.78
2023-02-06T00:25:11.492Z,100391.72
2023-02-06T00:27:17.688Z,100397.78
2023-02-06T00:29:22.623Z,100394.31
2023-02-06T00:31:30.145Z,100391.81
2023-02-06T00:33:35.030Z,100391.81
2023-02-06T00:35:41.242Z,100395.06
2023-02-06T00:37:45.831Z,100403.16
2023-02-06T00:39:50.705Z,100406.19
2023-02-06T00:41:55.844Z,100400.31
2023-02-06T00:44:00.492Z,100406.41
2023-02-06T00:46:05.913Z,100399.59
2023-02-06T00:48:16.720Z,100393.75
2023-02-06T00:50:21.779Z,100389.47
2023-02-06T00:52:26.649Z,100390.41
2023-02-06T00:54:31.665Z,100400.72
2023-02-06T00:56:36.689Z,100392.09
2023-02-06T00:58:41.478Z,100393.81
2023-02-06T01:00:48.956Z,100391.25
2023-02-06T01:02:54.094Z,100385.28
2023-02-06T01:05:01.325Z,100386.72
2023-02-06T01:07:06.174Z,100376.34
2023-02-06T01:09:11.076Z,100375.50
2023-02-06T01:11:17.586Z,100377.25
2023-02-06T01:13:22.607Z,100375.53
2023-02-06T01:15:27.447Z,100379.88
2023-02-06T01:17:33.861Z,100371.31
2023-02-06T01:19:40.129Z,100371.34
2023-02-06T01:21:47.664Z,100367.97
2023-02-06T01:23:55.428Z,100375.66
2023-02-06T01:26:00.365Z,100369.72
2023-02-06T01:28:05.202Z,100362.03
2023-02-06T01:30:11.845Z,100366.22
2023-02-06T01:32:16.714Z,100372.09
2023-02-06T01:34:21.559Z,100373.69
2023-02-06T01:36:26.960Z,100378.69
2023-02-06T01:38:34.577Z,100377.72
2023-02-06T01:40:40.050Z,100382.63
2023-02-06T01:42:46.055Z,100392.78
2023-02-06T01:44:50.871Z,100387.53
2023-02-06T01:46:58.815Z,100391.63
2023-02-06T01:49:06.706Z,100387.91
2023-02-06T01:51:17.360Z,100384.41
2023-02-06T01:53:24.399Z,100385.91
2023-02-06T01:55:32.090Z,100395.13
2023-02-06T01:57:41.545Z,100399.28
2023-02-06T01:59:52.349Z,100400.91
2023-02-06T02:01:57.208Z,100395.69
2023-02-06T02:04:07.209Z,100391.28
2023-02-06T02:06:13.858Z,100396.19
2023-02-06T02:08:23.372Z,100400.31
2023-02-06T02:10:31.356Z,100397.69
2023-02-06T02:12:36.737Z,100398.47
2023-02-06T02:14:44.021Z,100394.06
2023-02-06T02:17:03.624Z,100393.97
2023-02-06T02:19:41.881Z,100388.75
2023-02-06T02:22:11.353Z,100397.09
2023-02-06T02:24:23.685Z,100389.28
2023-02-06T02:27:01.370Z,100381.69
2023-02-06T02:29:39.490Z,100383.38
2023-02-06T02:32:07.402Z,100377.44
2023-02-06T02:34:36.453Z,100376.59
2023-02-06T02:36:46.926Z,100369.78
2023-02-06T02:39:02.381Z,100373.13
2023-02-06T02:41:10.877Z,100371.34
2023-02-06T02:43:27.069Z,100362.78
2023-02-06T02:45:39.879Z,100360.22
2023-02-06T02:47:50.259Z,100362.84
2023-02-06T02:49:57.307Z,100359.53
2023-02-06T02:52:05.430Z,100352.75
2023-02-06T02:54:11.002Z,100354.53
2023-02-06T02:56:20.785Z,100352.06
2023-02-06T02:58:31.443Z,100349.63
2023-02-06T03:00:39.671Z,100357.31
2023-02-06T03:02:47.245Z,100355.59
2023-02-06T03:04:56.754Z,100353.13
2023-02-06T03:07:23.005Z,100352.22
2023-02-06T03:09:37.761Z,100365.75
2023-02-06T03:11:48.254Z,100364.66
2023-02-06T03:13:58.620Z,100366.94
2023-02-06T03:16:10.553Z,100364.03
2023-02-06T03:18:21.291Z,100372.34
2023-02-06T03:20:27.774Z,100367.03
2023-02-06T03:22:37.809Z,100361.78
2023-02-06T03:24:42.993Z,100356.50
2023-02-06T03:26:48.537Z,100347.75
2023-02-06T03:28:56.653Z,100361.28
2023-02-06T03:31:04.053Z,100349.44
2023-02-06T03:33:13.861Z,100341.00
2023-02-06T03:35:22.718Z,100341.13
2023-02-06T03:37:28.596Z,100350.38
2023-02-06T03:39:36.619Z,100342.03
2023-02-06T03:41:43.510Z,100340.47
2023-02-06T03:43:51.702Z,100345.69
2023-02-06T03:46:01.201Z,100350.84
2023-02-06T03:48:10.784Z,100362.66
2023-02-06T03:50:16.844Z,100364.13
2023-02-06T03:52:26.649Z,100366.56
2023-02-06T03:54:36.533Z,100375.69
2023-02-06T03:56:47.377Z,100385.03
2023-02-06T03:58:52.448Z,100394.41
2023-02-06T04:00:57.367Z,100395.34
2023-02-06T04:03:03.146Z,100401.50
2023-02-06T04:05:09.010Z,100402.75
2023-02-06T04:07:20.855Z,100396.56
2023-02-06T04:09:25.806Z,100395.28
2023-02-06T04:11:33.254Z,100381.09
2023-02-06T04:13:38.501Z,100385.66
2023-02-06T04:15:43.487Z,100380.06
2023-02-06T04:17:59.567Z,100379.50
2023-02-06T04:20:06.881Z,100366.66
2023-02-06T04:22:15.723Z,100372.63
2023-02-06T04:24:20.656Z,100377.00
2023-02-06T04:26:25.433Z,100370.97
2023-02-06T04:28:33.009Z,100378.97
2023-02-06T04:30:37.846Z,100381.63
2023-02-06T04:32:42.709Z,100380.19
2023-02-06T04:34:47.617Z,100385.19
2023-02-06T04:36:52.841Z,100381.72
2023-02-06T04:38:57.634Z,100375.63
2023-02-06T04:41:05.675Z,100367.66
2023-02-06T04:43:10.553Z,100364.47
2023-02-06T04:45:17.977Z,100361.22
2023-02-06T04:47:22.812Z,100354.69
2023-02-06T04:49:27.749Z,100356.72
2023-02-06T04:51:32.644Z,100348.34
2023-02-06T04:53:37.526Z,100354.22
2023-02-06T04:55:42.317Z,100358.31
2023-02-06T04:57:51.444Z,100356.47
2023-02-06T04:59:56.277Z,100359.13
2023-02-06T05:02:04.546Z,100362.00
2023-02-06T05:04:09.384Z,100352.72
2023-02-06T05:06:14.381Z,100349.97
2023-02-06T05:08:19.162Z,100351.34
2023-02-06T05:10:24.114Z,100357.56
2023-02-06T05:12:29.075Z,100354.06
2023-02-06T05:14:34.087Z,100347.00
2023-02-06T05:16:38.911Z,100334.88
2023-02-06T05:18:49.014Z,100334.56
2023-02-06T05:20:53.830Z,100335.56
2023-02-06T05:22:58.796Z,100330.81
2023-02-06T05:25:03.609Z,100332.03
2023-02-06T05:27:08.448Z,100328.75
2023-02-06T05:29:13.335Z,100340.00
2023-02-06T05:31:20.209Z,100341.06
2023-02-06T05:33:25.489Z,100336.16
2023-02-06T05:35:32.704Z,100328.38
2023-02-06T05:37:39.734Z,100330.94
2023-02-06T05:39:44.865Z,100335.31
2023-02-06T05:41:49.411Z,100339.28
2023-02-06T05:43:54.281Z,100349.44
2023-02-06T05:45:59.162Z,100361.34
2023-02-06T05:48:04.110Z,100366.28
2023-02-06T05:50:09.519Z,100375.50
2023-02-06T05:52:17.592Z,100374.84
2023-02-06T05:54:22.467Z,100363.94
2023-02-06T05:56:27.388Z,100365.25
2023-02-06T05:58:32.199Z,100363.91
2023-02-06T06:00:37.234Z,100357.31
2023-02-06T06:02:42.837Z,100368.59
2023-02-06T06:04:47.827Z,100376.38
2023-02-06T06:06:52.864Z,100373.97
2023-02-06T06:09:01.418Z,100367.44
2023-02-06T06:11:07.418Z,100372.19
2023-02-06T06:13:12.634Z,100380.06
2023-02-06T06:15:17.529Z,100376.84
2023-02-06T06:17:22.391Z,100373.19
2023-02-06T06:19:27.194Z,100374.53
2023-02-06T06:21:34.352Z,100376.19
2023-02-06T06:23:42.311Z,100377.88
2023-02-06T06:25:50.556Z,100363.63
2023-02-06T06:27:55.478Z,100356.72
2023-02-06T06:30:00.418Z,100352.63
2023-02-06T06:32:05.281Z,100352.47
2023-02-06T06:34:10.098Z,100350.03
2023-02-06T06:36:16.349Z,100357.81
2023-02-06T06:38:21.227Z,100351.97
2023-02-06T06:40:28.665Z,100353.50
2023-02-06T06:42:36.327Z,100356.84
2023-02-06T06:44:41.115Z,100351.03
2023-02-06T06:46:45.950Z,100349.41
2023-02-06T06:48:50.847Z,100346.94
2023-02-06T06:50:55.917Z,100351.59
2023-02-06T06:53:00.707Z,100353.78
2023-02-06T06:55:05.637Z,100362.22
2023-02-06T06:57:10.490Z,100364.47
2023-02-06T06:59:18.071Z,100355.59
2023-02-06T07:01:26.000Z,100354.84
2023-02-06T07:03:30.961Z,100361.09
2023-02-06T07:05:36.929Z,100363.56
2023-02-06T07:07:41.977Z,100360.81
2023-02-06T07:09:50.445Z,100360.91
2023-02-06T07:11:55.386Z,100366.00
2023-02-06T07:14:00.164Z,100369.44
2023-02-06T07:16:08.470Z,100366.00
2023-02-06T07:18:13.344Z,100359.19
2023-02-06T07:20:18.651Z,100367.06
2023-02-06T07:22:23.667Z,100357.13
2023-02-06T07:24:28.771Z,100357.78
2023-02-06T07:26:33.574Z,100364.72
2023-02-06T07:28:38.641Z,100357.13
2023-02-06T07:30:45.411Z,100357.66
2023-02-06T07:32:53.958Z,100362.00
2023-02-06T07:34:58.811Z,100357.88
2023-02-06T07:37:03.912Z,100351.38
2023-02-06T07:39:08.467Z,100359.19
2023-02-06T07:41:13.980Z,100364.34
2023-02-06T07:43:19.189Z,100362.59
2023-02-06T07:45:25.045Z,100343.94
2023-02-06T07:47:29.995Z,100346.50
2023-02-06T07:49:37.404Z,100343.78
2023-02-06T07:51:42.484Z,100345.03
2023-02-06T07:53:47.144Z,100343.75
2023-02-06T07:55:52.105Z,100358.63
2023-02-06T07:57:58.051Z,100350.22
2023-02-06T08:00:02.868Z,100351.81
2023-02-06T08:02:16.947Z,100368.00
2023-02-06T08:04:21.793Z,100368.34
2023-02-06T08:06:29.657Z,100370.03
2023-02-06T08:08:34.496Z,100373.81
2023-02-06T08:10:41.072Z,100376.53
2023-02-06T08:12:45.944Z,100377.50
2023-02-06T08:14:50.873Z,100373.31
2023-02-06T08:16:55.827Z,100369.88
2023-02-06T08:19:00.507Z,100368.84
2023-02-06T08:21:06.233Z,100387.59
2023-02-06T08:23:13.665Z,100371.22
2023-02-06T08:25:18.840Z,100384.78
2023-02-06T08:27:24.000Z,100377.91
2023-02-06T08:29:29.529Z,100380.66
2023-02-06T08:31:36.731Z,100371.50
2023-02-06T08:33:41.662Z,100369.03
2023-02-06T08:35:46.464Z,100361.34
2023-02-06T08:37:51.263Z,100350.28
2023-02-06T08:40:00.661Z,100358.25
2023-02-06T08:42:05.523Z,100356.34
2023-02-06T08:44:13.420Z,100346.03
2023-02-06T08:46:20.218Z,100347.03
2023-02-06T08:48:25.160Z,100332.59
2023-02-06T08:50:31.356Z,100332.16
2023-02-06T08:52:36.228Z,100324.66
2023-02-06T08:54:41.017Z,100330.00
2023-02-06T08:56:49.207Z,100326.28
2023-02-06T08:58:54.459Z,100314.47
2023-02-06T09:01:00.124Z,100317.88
2023-02-06T09:03:05.609Z,100319.94
2023-02-06T09:05:10.977Z,100323.81
2023-02-06T09:07:17.341Z,100332.03
2023-02-06T09:09:22.562Z,100329.59
2023-02-06T09:11:28.768Z,100324.25
2023-02-06T09:13:36.514Z,100324.00
2023-02-06T09:15:43.274Z,100321.50
2023-02-06T09:17:48.141Z,100320.88
2023-02-06T09:19:52.928Z,100320.34
2023-02-06T09:21:57.909Z,100308.69
2023-02-06T09:24:04.531Z,100302.94
2023-02-06T09:26:09.667Z,100299.78
2023-02-06T09:28:14.991Z,100291.59
2023-02-06T09:30:22.560Z,100287.69
2023-02-06T09:32:27.358Z,100267.16
2023-02-06T09:34:32.216Z,100269.84
2023-02-06T09:36:37.744Z,100270.72
2023-02-06T09:38:45.036Z,100263.13
2023-02-06T09:40:49.827Z,100262.84
2023-02-06T09:42:54.961Z,100264.66
2023-02-06T09:45:04.915Z,100251.00
2023-02-06T09:47:23.365Z,100244.13
2023-02-06T09:49:32.413Z,100247.75
2023-02-06T09:51:52.343Z,100243.66
2023-02-06T09:54:07.432Z,100233.63
2023-02-06T09:56:20.260Z,100238.81
2023-02-06T09:58:32.669Z,100243.09
2023-02-06T10:00:44.912Z,100248.44
2023-02-06T10:03:06.319Z,100232.13
2023-02-06T10:05:22.754Z,100226.81
2023-02-06T10:07:42.238Z,100241.63
2023-02-06T10:09:53.576Z,100239.22
2023-02-06T10:12:02.507Z,100228.25
2023-02-06T10:14:13.548Z,100210.34
2023-02-06T10:16:32.525Z,100212.31
2023-02-06T10:18:46.889Z,100218.41
2023-02-06T10:20:55.883Z,100216.78
2023-02-06T10:23:13.050Z,100216.97
2023-02-06T10:25:25.402Z,100199.06
2023-02-06T10:27:30.322Z,100203.41
2023-02-06T10:29:40.648Z,100205.22
2023-02-06T10:32:10.767Z,100207.13
2023-02-06T10:34:30.918Z,100206.31
2023-02-06T10:36:49.390Z,100196.97
2023-02-06T10:39:20.988Z,100186.56
2023-02-06T10:41:35.660Z,100179.53
2023-02-06T10:43:48.828Z,100175.78
2023-02-06T10:46:03.205Z,100171.34
2023-02-06T10:48:18.535Z,100169.81
2023-02-06T10:50:31.489Z,100157.19
2023-02-06T10:52:39.497Z,100167.34
2023-02-06T10:54:52.516Z,100175.03
2023-02-06T10:56:59.876Z,100184.56
2023-02-06T10:59:09.018Z,100179.41
2023-02-06T11:01:25.954Z,100158.09
2023-02-06T11:03:33.328Z,100146.28
2023-02-06T11:05:41.547Z,100149.94
2023-02-06T11:07:51.706Z,100150.81
2023-02-06T11:09:57.281Z,100143.06
2023-02-06T11:12:03.924Z,100129.53
2023-02-06T11:14:16.637Z,100119.28
2023-02-06T11:16:27.380Z,100126.16
2023-02-06T11:18:36.512Z,100126.78
2023-02-06T11:20:47.248Z,100125.94
2023-02-06T11:22:53.783Z,100127.81
2023-02-06T11:25:05.424Z,100135.53
2023-02-06T11:27:20.698Z,100138.16
2023-02-06T11:29:28.096Z,100133.75
2023-02-06T11:31:46.553Z,100135.94
2023-02-06T11:33:53.859Z,100133.44
2023-02-06T11:36:04.256Z,100127.47
2023-02-06T11:38:17.220Z,100129.19
2023-02-06T11:40:30.176Z,100122.38
2023-02-06T11:42:36.422Z,100123.19
2023-02-06T11:44:46.498Z,100124.84
2023-02-06T11:46:51.387Z,100117.94
2023-02-06T11:49:08.367Z,100123.88
2023-02-06T11:51:17.092Z,100132.22
2023-02-06T11:53:22.055Z,100140.66
2023-02-06T11:55:30.417Z,100139.53
2023-02-06T11:57:36.888Z,100141.31
2023-02-06T11:59:54.584Z,100134.75
2023-02-06T12:02:01.590Z,100124.59
2023-02-06T12:04:07.205Z,100125.50
2023-02-06T12:06:19.484Z,100133.97
2023-02-06T12:08:25.769Z,100138.16
2023-02-06T12:10:34.241Z,100131.41
2023-02-06T12:12:43.445Z,100122.78
2023-02-06T12:14:54.023Z,100110.69
2023-02-06T12:17:00.183Z,100104.59
2023-02-06T12:19:11.697Z,100102.16
2023-02-06T12:21:27.141Z,100087.69
2023-02-06T12:23:43.139Z,100089.53
2023-02-06T12:25:52.008Z,100085.16
2023-02-06T12:28:00.961Z,100073.25
2023-02-06T12:30:25.912Z,100069.84
2023-02-06T12:32:35.576Z,100067.19
2023-02-06T12:34:53.856Z,100071.53
2023-02-06T12:37:14.512Z,100069.19
2023-02-06T12:39:22.603Z,100070.97
2023-02-06T12:41:49.501Z,100073.66
2023-02-06T12:43:59.759Z,100074.63
2023-02-06T12:46:11.628Z,100072.88
2023-02-06T12:48:21.493Z,100072.03
2023-02-06T12:50:29.942Z,100088.41
2023-02-06T12:52:44.062Z,100082.50
2023-02-06T12:54:54.144Z,100079.19
2023-02-06T12:57:03.288Z,100069.88
2023-02-06T12:59:34.705Z,100072.47
2023-02-06T13:01:52.917Z,100068.75
2023-02-06T13:03:59.946Z,100066.94
2023-02-06T13:06:15.741Z,100069.53
2023-02-06T13:08:26.677Z,100059.28
2023-02-06T13:10:31.860Z,100063.50
2023-02-06T13:12:37.530Z,100057.50
2023-02-06T13:14:49.024Z,100062.75
2023-02-06T13:16:56.743Z,100069.56
2023-02-06T13:19:05.745Z,100067.78
2023-02-06T13:21:19.164Z,100070.47
2023-02-06T13:23:27.214Z,100067.03
2023-02-06T13:25:52.765Z,100071.34
2023-02-06T13:27:59.152Z,100073.84
2023-02-06T13:30:20.546Z,100075.63
2023-02-06T13:32:50.180Z,100078.97
2023-02-06T13:35:01.172Z,100078.97
2023-02-06T13:37:23.989Z,100088.38
2023-02-06T13:39:36.323Z,100095.78
2023-02-06T13:41:42.723Z,100099.19
2023-02-06T13:43:53.083Z,100080.31
2023-02-06T13:46:01.250Z,100084.75
2023-02-06T13:48:55.150Z,100078.81
2023-02-06T13:51:27.779Z,100077.19
2023-02-06T13:53:54.142Z,100061.59
2023-02-06T13:56:10.430Z,100072.59
2023-02-06T13:58:47.888Z,100069.97
2023-02-06T14:00:54.429Z,100068.97
2023-02-06T14:03:08.291Z,100069.97
2023-02-06T14:05:16.424Z,100064.78
2023-02-06T14:07:45.119Z,100070.72
2023-02-06T14:10:13.389Z,100068.13
2023-02-06T14:12:32.255Z,100068.09
2023-02-06T14:14:51.360Z,100058.56
2023-02-06T14:17:07.871Z,100061.09
2023-02-06T14:19:22.842Z,100065.41
2023-02-06T14:21:40.169Z,100061.19
2023-02-06T14:24:02.183Z,100062.00
2023-02-06T14:26:25.306Z,100055.88
2023-02-06T14:28:40.799Z,100062.00
2023-02-06T14:30:53.677Z,100060.44
2023-02-06T14:33:13.846Z,100062.28
2023-02-06T14:35:40.019Z,100071.66
2023-02-06T14:37:49.193Z,100072.47
2023-02-06T14:39:55.900Z,100069.00
2023-02-06T14:42:01.238Z,100068.00
2023-02-06T14:44:13.643Z,100072.13
2023-02-06T14:46:22.749Z,100071.16
2023-02-06T14:48:34.595Z,100072.09
2023-02-06T14:50:42.308Z,100066.16
2023-02-06T14:52:50.714Z,100072.31
2023-02-06T14:54:55.938Z,100066.22
2023-02-06T14:57:01.677Z,100063.69
2023-02-06T14:59:23.959Z,100065.44
2023-02-06T15:01:32.620Z,100060.31
2023-02-06T15:03:37.771Z,100062.97
2023-02-06T15:05:42.615Z,100062.19
2023-02-06T15:07:47.422Z,100052.72
2023-02-06T15:09:59.828Z,100049.34
2023-02-06T15:12:07.666Z,100043.31
2023-02-06T15:14:28.360Z,100049.97
2023-02-06T15:16:33.596Z,100043.97
2023-02-06T15:18:38.844Z,100054.06
2023-02-06T15:20:45.846Z,100053.22
2023-02-06T15:22:50.731Z,100049.78
2023-02-06T15:25:10.849Z,100056.63
2023-02-06T15:27:24.411Z,100060.84
2023-02-06T15:29:32.617Z,100063.56
2023-02-06T15:31:37.470Z,100065.13
2023-02-06T15:33:44.930Z,100065.19
2023-02-06T15:35:53.145Z,100071.00
2023-02-06T15:37:59.076Z,100074.53
2023-02-06T15:40:12.078Z,100076.81
2023-02-06T15:42:17.278Z,100075.19
2023-02-06T15:44:26.759Z,100079.56
2023-02-06T15:46:35.184Z,100074.28
2023-02-06T15:48:43.767Z,100085.34
2023-02-06T15:50:59.300Z,100077.47
2023-02-06T15:53:20.086Z,100076.63
2023-02-06T15:55:27.534Z,100086.75
2023-02-06T15:57:36.402Z,100083.41
2023-02-06T15:59:46.758Z,100086.06
2023-02-06T16:01:56.926Z,100084.19
2023-02-06T16:04:05.491Z,100082.25
2023-02-06T16:06:17.621Z,100084.78
2023-02-06T16:08:25.293Z,100083.94
2023-02-06T16:10:32.071Z,100091.63
2023-02-06T16:12:38.467Z,100086.66
2023-02-06T16:14:45.329Z,100089.19
2023-02-06T16:17:02.895Z,100087.41
2023-02-06T16:19:32.316Z,100095.94
2023-02-06T16:21:42.265Z,100095.13
2023-02-06T16:23:48.844Z,100095.00
2023-02-06T16:26:05.142Z,100096.59
2023-02-06T16:28:23.103Z,100094.59
2023-02-06T16:30:31.056Z,100102.44
2023-02-06T16:32:38.772Z,100112.84
2023-02-06T16:34:47.377Z,100106.63
2023-02-06T16:36:52.222Z,100114.38
2023-02-06T16:39:03.575Z,100115.25
2023-02-06T16:41:26.891Z,100114.44
2023-02-06T16:43:33.387Z,100107.59
2023-02-06T16:45:38.228Z,100107.69
2023-02-06T16:47:45.800Z,100107.00
2023-02-06T16:49:51.222Z,100119.63
2023-02-06T16:51:56.961Z,100113.53
2023-02-06T16:54:02.640Z,100122.78
2023-02-06T16:56:08.287Z,100129.66
2023-02-06T16:58:19.174Z,100137.13
2023-02-06T17:00:26.600Z,100134.66
2023-02-06T17:02:31.540Z,100129.53
2023-02-06T17:04:40.508Z,100135.53
2023-02-06T17:06:45.462Z,100138.78
2023-02-06T17:08:50.875Z,100136.16
2023-02-06T17:10:56.007Z,100138.63
2023-02-06T17:13:00.623Z,100134.22
2023-02-06T17:15:05.590Z,100129.13
2023-02-06T17:17:11.845Z,100130.09
2023-02-06T17:19:17.774Z,100132.84
2023-02-06T17:21:29.788Z,100138.84
2023-02-06T17:23:35.350Z,100135.28
2023-02-06T17:25:43.006Z,100135.97
2023-02-06T17:27:47.991Z,100145.47
2023-02-06T17:29:53.910Z,100146.31
2023-02-06T17:31:58.785Z,100160.63
2023-02-06T17:34:03.747Z,100154.53
2023-02-06T17:36:15.776Z,100145.16
2023-02-06T17:38:23.254Z,100130.59
2023-02-06T17:40:29.852Z,100134.03
2023-02-06T17:42:34.738Z,100134.75
2023-02-06T17:44:41.774Z,100132.25
2023-02-06T17:46:48.337Z,100138.13
2023-02-06T17:48:53.195Z,100143.34
2023-02-06T17:50:58.115Z,100142.53
2023-02-06T17:53:03.901Z,100144.44
2023-02-06T17:55:12.646Z,100153.03
2023-02-06T17:57:17.545Z,100146.09
2023-02-06T17:59:22.472Z,100152.94
2023-02-06T18:01:27.566Z,100147.91
2023-02-06T18:03:32.708Z,100149.69
2023-02-06T18:05:38.015Z,100155.69
2023-02-06T18:07:44.310Z,100157.41
2023-02-06T18:09:49.927Z,100159.91
2023-02-06T18:11:57.539Z,100166.72
2023-02-06T18:14:02.385Z,100162.34
2023-02-06T18:16:08.132Z,100157.34
2023-02-06T18:18:13.034Z,100167.63
2023-02-06T18:20:19.050Z,100167.75
2023-02-06T18:22:24.722Z,100167.63
2023-02-06T18:24:29.765Z,100167.69
2023-02-06T18:26:34.598Z,100177.34
2023-02-06T18:28:42.779Z,100167.13
2023-02-06T18:30:48.368Z,100170.56
2023-02-06T18:32:53.344Z,100169.69
2023-02-06T18:34:58.264Z,100178.34
2023-02-06T18:37:03.309Z,100181.84
2023-02-06T18:39:08.934Z,100181.75
2023-02-06T18:41:34.235Z,100175.41
2023-02-06T18:43:39.269Z,100175.56
2023-02-06T18:45:44.993Z,100174.06
2023-02-06T18:47:51.498Z,100172.16
2023-02-06T18:49:56.369Z,100172.34
2023-02-06T18:52:01.218Z,100178.44
2023-02-06T18:54:07.878Z,100175.94
2023-02-06T18:56:12.859Z,100182.88
2023-02-06T18:58:17.813Z,100179.31
2023-02-06T19:00:26.748Z,100180.03
2023-02-06T19:02:31.742Z,100182.59
2023-02-06T19:04:38.005Z,100184.31
2023-02-06T19:06:44.736Z,100187.75
2023-02-06T19:08:50.098Z,100186.13
2023-02-06T19:10:54.702Z,100202.13
2023-02-06T19:12:59.684Z,100206.50
2023-02-06T19:15:04.862Z,100208.88
2023-02-06T19:17:12.234Z,100218.25
2023-02-06T19:19:17.515Z,100220.69
2023-02-06T19:21:22.969Z,100222.28
2023-02-06T19:23:28.022Z,100223.13
2023-02-06T19:25:32.894Z,100229.13
2023-02-06T19:27:38.538Z,100231.53
2023-02-06T19:29:46.205Z,100232.22
2023-02-06T19:31:51.224Z,100225.63
2023-02-06T19:34:01.925Z,100225.75
2023-02-06T19:36:09.634Z,100220.69
2023-02-06T19:38:14.470Z,100215.59
2023-02-06T19:40:19.960Z,100207.09
2023-02-06T19:42:24.884Z,100208.03
2023-02-06T19:44:32.187Z,100213.16
2023-02-06T19:46:38.821Z,100211.41
2023-02-06T19:48:47.398Z,100205.38
2023-02-06T19:50:54.797Z,100207.16
2023-02-06T19:53:00.138Z,100202.81
2023-02-06T19:55:05.266Z,100196.81
2023-02-06T19:57:09.847Z,100198.34
2023-02-06T19:59:18.378Z,100204.28
2023-02-06T20:01:23.417Z,100203.41
2023-02-06T20:03:31.548Z,100209.41
2023-02-06T20:05:36.656Z,100208.41
2023-02-06T20:07:44.173Z,100203.16
2023-02-06T20:09:50.942Z,100202.44
2023-02-06T20:11:55.981Z,100207.63
2023-02-06T20:14:01.327Z,100211.72
2023-02-06T20:16:07.924Z,100201.31
2023-02-06T20:18:12.971Z,100203.53
2023-02-06T20:20:17.842Z,100210.38
2023-02-06T20:22:22.877Z,100206.13
2023-02-06T20:24:32.037Z,100212.03
2023-02-06T20:26:39.691Z,100217.16
2023-02-06T20:28:44.549Z,100206.06
2023-02-06T20:30:49.692Z,100211.91
2023-02-06T20:32:54.466Z,100198.03
2023-02-06T20:34:59.744Z,100207.19
2023-02-06T20:37:04.935Z,100212.25
2023-02-06T20:39:09.660Z,100218.16
2023-02-06T20:41:17.133Z,100209.56
2023-02-06T20:43:21.970Z,100204.25
2023-02-06T20:45:27.281Z,100208.41
2023-02-06T20:47:32.139Z,100206.63
2023-02-06T20:49:36.996Z,100210.75
2023-02-06T20:51:41.946Z,100214.88
2023-02-06T20:53:46.801Z,100218.22
2023-02-06T20:55:51.906Z,100218.91
2023-02-06T20:57:59.329Z,100227.44
2023-02-06T21:00:04.199Z,100226.47
2023-02-06T21:02:09.103Z,100220.47
2023-02-06T21:04:15.764Z,100228.16
2023-02-06T21:06:21.202Z,100228.78
2023-02-06T21:08:26.786Z,100230.44
2023-02-06T21:10:32.067Z,100231.25
2023-02-06T21:12:37.005Z,100229.59
2023-02-06T21:14:44.557Z,100229.47
2023-02-06T21:16:50.081Z,100239.72
2023-02-06T21:18:55.029Z,100238.88
2023-02-06T21:21:07.303Z,100242.13
2023-02-06T21:23:12.644Z,100244.47
2023-02-06T21:25:17.470Z,100251.91
2023-02-06T21:27:22.429Z,100259.41
2023-02-06T21:29:27.458Z,100261.81
2023-02-06T21:31:38.317Z,100280.56
2023-02-06T21:33:48.941Z,100276.13
2023-02-06T21:35:54.137Z,100269.34
2023-02-06T21:37:59.365Z,100273.56
2023-02-06T21:40:03.985Z,100282.00
2023-02-06T21:42:09.259Z,100287.94
2023-02-06T21:44:14.545Z,100297.19
2023-02-06T21:46:19.543Z,100285.06
2023-02-06T21:48:27.049Z,100284.09
2023-02-06T21:50:31.908Z,100281.47
2023-02-06T21:52:37.925Z,100287.38
2023-02-06T21:54:42.894Z,100294.88
2023-02-06T21:56:47.764Z,100297.22
2023-02-06T21:58:53.457Z,100292.00
2023-02-06T22:00:58.301Z,100300.47
2023-02-06T22:03:03.180Z,100308.78
2023-02-06T22:05:11.342Z,100300.22
2023-02-06T22:07:16.188Z,100296.59
2023-02-06T22:09:21.122Z,100301.63
2023-02-06T22:11:28.400Z,100304.06
2023-02-06T22:13:33.794Z,100303.00
2023-02-06T22:15:39.222Z,100302.81
2023-02-06T22:17:44.467Z,100303.69
2023-02-06T22:19:50.327Z,100309.66
2023-02-06T22:21:57.864Z,100313.06
2023-02-06T22:24:04.650Z,100314.59
2023-02-06T22:26:10.826Z,100319.72
2023-02-06T22:28:15.853Z,100314.59
2023-02-06T22:30:21.380Z,100319.59
2023-02-06T22:32:26.266Z,100323.75
2023-02-06T22:34:31.071Z,100333.00
2023-02-06T22:36:36.331Z,100332.84
2023-02-06T22:38:47.130Z,100337.00
2023-02-06T22:41:00.794Z,100342.06
2023-02-06T22:43:05.681Z,100341.72
2023-02-06T22:45:11.182Z,100345.25
2023-02-06T22:47:16.007Z,100350.38
2023-02-06T22:49:21.686Z,100345.91
2023-02-06T22:51:26.790Z,100349.31
2023-02-06T22:53:31.992Z,100348.38
2023-02-06T22:55:58.297Z,100353.44
2023-02-06T22:58:03.140Z,100343.03
2023-02-06T23:00:12.243Z,100348.16
2023-02-06T23:02:17.230Z,100349.03
2023-02-06T23:04:24.311Z,100351.34
2023-02-06T23:06:30.850Z,100370.13
2023-02-06T23:08:37.006Z,100370.88
2023-02-06T23:10:44.395Z,100373.34
2023-02-06T23:12:49.221Z,100374.81
2023-02-06T23:14:54.392Z,100382.13
2023-02-06T23:16:59.399Z,100381.28
2023-02-06T23:19:05.777Z,100385.44
2023-02-06T23:21:12.781Z,100392.19
2023-02-06T23:23:17.574Z,100400.72
2023-02-06T23:25:22.396Z,100397.94
2023-02-06T23:27:30.421Z,100390.25
2023-02-06T23:29:35.307Z,100390.25
2023-02-06T23:31:40.186Z,100387.91
2023-02-06T23:33:45.265Z,100375.00
2023-02-06T23:35:50.072Z,100387.59
2023-02-06T23:37:55.619Z,100397.72
2023-02-06T23:40:00.599Z,100395.03
2023-02-06T23:42:05.461Z,100411.94
2023-02-06T23:44:13.932Z,100423.78
2023-02-06T23:46:20.164Z,100404.16
2023-02-06T23:48:25.099Z,100407.47
2023-02-06T23:50:30.358Z,100377.50
2023-02-06T23:52:35.301Z,100388.34
2023-02-06T23:54:40.148Z,100392.84
2023-02-06T23:56:44.977Z,100372.28
2023-02-06T23:58:51.568Z,100382.34
